sensor_id;sensor_type;location;lat;lon;timestamp;pressure;altitude;pressure_sealevel;temperature;humidity
64853;BME280;56050;55.558;-4.644;2023-02-13T00:01:02;103299.75;;;8.86;60.74
64853;BME280;56050;55.558;-4.644;2023-02-13T00:03:27;103297.19;;;8.81;60.77
64853;BME280;56050;55.558;-4.644;2023-02-13T00:05:53;103302.06;;;8.79;60.71
64853;BME280;56050;55.558;-4.644;2023-02-13T00:08:18;103304.59;;;8.75;60.77
64853;BME280;56050;55.558;-4.644;2023-02-13T00:10:43;103303.31;;;8.73;60.83
64853;BME280;56050;55.558;-4.644;2023-02-13T00:13:09;103304.56;;;8.67;60.95
64853;BME280;56050;55.558;-4.644;2023-02-13T00:15:34;103298.03;;;8.59;60.98
64853;BME280;56050;55.558;-4.644;2023-02-13T00:18:01;103299.78;;;8.55;61.09
64853;BME280;56050;55.558;-4.644;2023-02-13T00:20:26;103298.31;;;8.49;61.22
64853;BME280;56050;55.558;-4.644;2023-02-13T00:22:52;103297.66;;;8.44;61.18
64853;BME280;56050;55.558;-4.644;2023-02-13T00:25:17;103299.34;;;8.40;61.27
64853;BME280;56050;55.558;-4.644;2023-02-13T00:27:43;103297.94;;;8.34;61.25
64853;BME280;56050;55.558;-4.644;2023-02-13T00:30:08;103302.03;;;8.31;61.26
64853;BME280;56050;55.558;-4.644;2023-02-13T00:32:34;103310.94;;;8.26;61.25
64853;BME280;56050;55.558;-4.644;2023-02-13T00:34:59;103305.72;;;8.21;61.46
64853;BME280;56050;55.558;-4.644;2023-02-13T00:37:24;103297.47;;;8.18;61.51
64853;BME280;56050;55.558;-4.644;2023-02-13T00:39:50;103301.69;;;8.10;61.61
64853;BME280;56050;55.558;-4.644;2023-02-13T00:42:15;103294.84;;;8.04;61.56
64853;BME280;56050;55.558;-4.644;2023-02-13T00:44:41;103298.94;;;8.02;61.73
64853;BME280;56050;55.558;-4.644;2023-02-13T00:47:06;103289.41;;;7.96;61.61
64853;BME280;56050;55.558;-4.644;2023-02-13T00:49:32;103281.81;;;7.89;61.64
64853;BME280;56050;55.558;-4.644;2023-02-13T00:51:57;103280.81;;;7.85;61.66
64853;BME280;56050;55.558;-4.644;2023-02-13T00:54:22;103287.13;;;7.81;61.79
64853;BME280;56050;55.558;-4.644;2023-02-13T00:56:48;103281.06;;;7.75;61.94
64853;BME280;56050;55.558;-4.644;2023-02-13T00:59:13;103281.81;;;7.67;61.83
64853;BME280;56050;55.558;-4.644;2023-02-13T01:01:39;103279.53;;;7.60;62.08
64853;BME280;56050;55.558;-4.644;2023-02-13T01:04:04;103278.84;;;7.55;62.08
64853;BME280;56050;55.558;-4.644;2023-02-13T01:06:30;103274.69;;;7.49;62.23
64853;BME280;56050;55.558;-4.644;2023-02-13T01:08:55;103276.09;;;7.46;62.30
64853;BME280;56050;55.558;-4.644;2023-02-13T01:11:20;103268.97;;;7.42;62.35
64853;BME280;56050;55.558;-4.644;2023-02-13T01:13:46;103273.31;;;7.38;62.42
64853;BME280;56050;55.558;-4.644;2023-02-13T01:16:11;103274.72;;;7.35;62.51
64853;BME280;56050;55.558;-4.644;2023-02-13T01:18:37;103271.56;;;7.33;62.56
64853;BME280;56050;55.558;-4.644;2023-02-13T01:21:05;103268.38;;;7.31;62.49
64853;BME280;56050;55.558;-4.644;2023-02-13T01:23:36;103264.13;;;7.30;62.68
64853;BME280;56050;55.558;-4.644;2023-02-13T01:26:07;103267.88;;;7.29;62.53
64853;BME280;56050;55.558;-4.644;2023-02-13T01:28:33;103267.59;;;7.31;62.58
64853;BME280;56050;55.558;-4.644;2023-02-13T01:30:58;103264.59;;;7.32;62.57
64853;BME280;56050;55.558;-4.644;2023-02-13T01:33:26;103261.91;;;7.32;62.59
64853;BME280;56050;55.558;-4.644;2023-02-13T01:35:51;103261.44;;;7.30;62.54
64853;BME280;56050;55.558;-4.644;2023-02-13T01:38:17;103259.06;;;7.29;62.40
64853;BME280;56050;55.558;-4.644;2023-02-13T01:40:45;103267.41;;;7.27;62.50
64853;BME280;56050;55.558;-4.644;2023-02-13T01:43:11;103263.75;;;7.23;62.67
64853;BME280;56050;55.558;-4.644;2023-02-13T01:45:36;103257.09;;;7.21;62.76
64853;BME280;56050;55.558;-4.644;2023-02-13T01:48:05;103253.09;;;7.18;62.50
64853;BME280;56050;55.558;-4.644;2023-02-13T01:55:49;103262.38;;;7.12;62.71
64853;BME280;56050;55.558;-4.644;2023-02-13T01:58:28;103262.66;;;7.10;62.61
64853;BME280;56050;55.558;-4.644;2023-02-13T02:00:56;103251.94;;;7.10;62.55
64853;BME280;56050;55.558;-4.644;2023-02-13T02:03:47;103259.50;;;7.08;62.82
64853;BME280;56050;55.558;-4.644;2023-02-13T02:06:19;103256.31;;;7.06;62.71
64853;BME280;56050;55.558;-4.644;2023-02-13T02:08:48;103252.84;;;7.06;62.66
64853;BME280;56050;55.558;-4.644;2023-02-13T02:11:31;103253.94;;;7.05;62.68
64853;BME280;56050;55.558;-4.644;2023-02-13T02:14:00;103247.75;;;7.04;62.73
64853;BME280;56050;55.558;-4.644;2023-02-13T02:16:25;103255.81;;;7.04;62.74
64853;BME280;56050;55.558;-4.644;2023-02-13T02:18:51;103251.25;;;7.05;62.83
64853;BME280;56050;55.558;-4.644;2023-02-13T02:32:39;103241.72;;;6.85;63.15
64853;BME280;56050;55.558;-4.644;2023-02-13T02:40:25;103234.81;;;6.84;63.01
64853;BME280;56050;55.558;-4.644;2023-02-13T02:51:21;103227.28;;;6.73;63.27
64853;BME280;56050;55.558;-4.644;2023-02-13T02:56:39;103220.72;;;6.65;63.26
64853;BME280;56050;55.558;-4.644;2023-02-13T02:59:10;103224.19;;;6.66;63.31
64853;BME280;56050;55.558;-4.644;2023-02-13T03:01:56;103221.81;;;6.64;63.12
64853;BME280;56050;55.558;-4.644;2023-02-13T03:04:45;103219.13;;;6.64;63.02
64853;BME280;56050;55.558;-4.644;2023-02-13T03:07:29;103215.97;;;6.62;63.22
64853;BME280;56050;55.558;-4.644;2023-02-13T03:09:59;103219.72;;;6.61;63.33
64853;BME280;56050;55.558;-4.644;2023-02-13T03:12:53;103220.31;;;6.58;63.33
64853;BME280;56050;55.558;-4.644;2023-02-13T03:15:40;103213.69;;;6.56;63.30
64853;BME280;56050;55.558;-4.644;2023-02-13T03:18:42;103211.31;;;6.54;63.31
64853;BME280;56050;55.558;-4.644;2023-02-13T03:21:32;103213.19;;;6.54;63.32
64853;BME280;56050;55.558;-4.644;2023-02-13T03:24:32;103214.56;;;6.51;63.44
64853;BME280;56050;55.558;-4.644;2023-02-13T03:29:48;103216.16;;;6.52;63.51
64853;BME280;56050;55.558;-4.644;2023-02-13T03:32:49;103215.56;;;6.55;63.46
64853;BME280;56050;55.558;-4.644;2023-02-13T03:38:32;103216.56;;;6.59;63.32
64853;BME280;56050;55.558;-4.644;2023-02-13T03:41:06;103216.56;;;6.59;63.31
64853;BME280;56050;55.558;-4.644;2023-02-13T03:46:35;103213.88;;;6.59;63.28
64853;BME280;56050;55.558;-4.644;2023-02-13T03:49:03;103209.91;;;6.57;63.39
64853;BME280;56050;55.558;-4.644;2023-02-13T03:52:12;103212.88;;;6.55;63.32
64853;BME280;56050;55.558;-4.644;2023-02-13T03:54:45;103209.72;;;6.53;63.50
64853;BME280;56050;55.558;-4.644;2023-02-13T03:57:32;103209.22;;;6.51;63.57
64853;BME280;56050;55.558;-4.644;2023-02-13T04:00:20;103205.25;;;6.48;63.60
64853;BME280;56050;55.558;-4.644;2023-02-13T04:06:20;103206.44;;;6.42;63.58
64853;BME280;56050;55.558;-4.644;2023-02-13T04:08:44;103219.03;;;6.42;63.49
64853;BME280;56050;55.558;-4.644;2023-02-13T04:11:13;103212.28;;;6.44;63.69
64853;BME280;56050;55.558;-4.644;2023-02-13T04:13:56;103213.88;;;6.45;63.57
64853;BME280;56050;55.558;-4.644;2023-02-13T04:16:32;103210.09;;;6.46;63.51
64853;BME280;56050;55.558;-4.644;2023-02-13T04:18:59;103211.38;;;6.49;63.44
64853;BME280;56050;55.558;-4.644;2023-02-13T04:21:25;103214.06;;;6.49;63.34
64853;BME280;56050;55.558;-4.644;2023-02-13T04:23:51;103212.97;;;6.50;63.38
64853;BME280;56050;55.558;-4.644;2023-02-13T04:26:19;103215.97;;;6.48;63.27
64853;BME280;56050;55.558;-4.644;2023-02-13T04:28:45;103209.91;;;6.43;63.33
64853;BME280;56050;55.558;-4.644;2023-02-13T04:31:10;103223.59;;;6.41;63.44
64853;BME280;56050;55.558;-4.644;2023-02-13T04:33:36;103226.75;;;6.43;63.42
64853;BME280;56050;55.558;-4.644;2023-02-13T04:36:01;103227.97;;;6.51;63.51
64853;BME280;56050;55.558;-4.644;2023-02-13T04:38:27;103224.88;;;6.58;63.19
64853;BME280;56050;55.558;-4.644;2023-02-13T04:40:52;103219.63;;;6.66;63.08
64853;BME280;56050;55.558;-4.644;2023-02-13T04:43:17;103221.91;;;6.73;62.96
64853;BME280;56050;55.558;-4.644;2023-02-13T04:45:43;103225.28;;;6.78;62.87
64853;BME280;56050;55.558;-4.644;2023-02-13T04:48:12;103225.16;;;6.83;62.98
64853;BME280;56050;55.558;-4.644;2023-02-13T04:50:37;103220.63;;;6.84;62.77
64853;BME280;56050;55.558;-4.644;2023-02-13T04:53:02;103212.25;;;6.85;62.79
64853;BME280;56050;55.558;-4.644;2023-02-13T04:55:28;103213.84;;;6.86;63.03
64853;BME280;56050;55.558;-4.644;2023-02-13T04:57:54;103214.34;;;6.88;62.95
64853;BME280;56050;55.558;-4.644;2023-02-13T05:00:21;103206.78;;;6.90;63.15
64853;BME280;56050;55.558;-4.644;2023-02-13T05:02:48;103205.72;;;6.91;63.19
64853;BME280;56050;55.558;-4.644;2023-02-13T05:05:13;103196.00;;;6.95;63.34
64853;BME280;56050;55.558;-4.644;2023-02-13T05:07:40;103191.91;;;6.98;63.25
64853;BME280;56050;55.558;-4.644;2023-02-13T05:10:06;103193.19;;;7.00;63.41
64853;BME280;56050;55.558;-4.644;2023-02-13T05:12:31;103194.16;;;7.04;63.29
64853;BME280;56050;55.558;-4.644;2023-02-13T05:14:56;103191.69;;;7.08;63.34
64853;BME280;56050;55.558;-4.644;2023-02-13T05:17:22;103186.53;;;7.12;63.43
64853;BME280;56050;55.558;-4.644;2023-02-13T05:19:47;103199.81;;;7.17;63.34
64853;BME280;56050;55.558;-4.644;2023-02-13T05:22:12;103208.53;;;7.22;63.15
64853;BME280;56050;55.558;-4.644;2023-02-13T05:24:56;103202.75;;;7.29;63.26
64853;BME280;56050;55.558;-4.644;2023-02-13T05:27:21;103200.75;;;7.34;63.18
64853;BME280;56050;55.558;-4.644;2023-02-13T05:29:48;103199.22;;;7.42;62.98
64853;BME280;56050;55.558;-4.644;2023-02-13T05:32:13;103197.50;;;7.46;62.95
64853;BME280;56050;55.558;-4.644;2023-02-13T05:34:38;103187.78;;;7.50;62.92
64853;BME280;56050;55.558;-4.644;2023-02-13T05:37:04;103195.50;;;7.51;62.97
64853;BME280;56050;55.558;-4.644;2023-02-13T05:39:29;103184.78;;;7.51;63.05
64853;BME280;56050;55.558;-4.644;2023-02-13T05:41:54;103189.84;;;7.53;63.25
64853;BME280;56050;55.558;-4.644;2023-02-13T05:44:20;103185.44;;;7.57;63.11
64853;BME280;56050;55.558;-4.644;2023-02-13T05:46:45;103185.16;;;7.58;63.15
64853;BME280;56050;55.558;-4.644;2023-02-13T05:49:11;103185.63;;;7.60;63.22
64853;BME280;56050;55.558;-4.644;2023-02-13T05:51:37;103185.63;;;7.60;63.48
64853;BME280;56050;55.558;-4.644;2023-02-13T05:54:03;103191.81;;;7.61;63.53
64853;BME280;56050;55.558;-4.644;2023-02-13T05:56:28;103191.19;;;7.64;63.43
64853;BME280;56050;55.558;-4.644;2023-02-13T05:58:54;103192.94;;;7.68;63.53
64853;BME280;56050;55.558;-4.644;2023-02-13T06:01:20;103184.00;;;7.73;63.49
64853;BME280;56050;55.558;-4.644;2023-02-13T06:03:46;103180.69;;;7.76;63.49
64853;BME280;56050;55.558;-4.644;2023-02-13T06:06:12;103188.13;;;7.79;63.49
64853;BME280;56050;55.558;-4.644;2023-02-13T06:08:38;103189.09;;;7.83;63.42
64853;BME280;56050;55.558;-4.644;2023-02-13T06:11:03;103191.19;;;7.86;63.42
64853;BME280;56050;55.558;-4.644;2023-02-13T06:13:29;103186.28;;;7.88;63.49
64853;BME280;56050;55.558;-4.644;2023-02-13T06:15:55;103186.16;;;7.93;63.41
64853;BME280;56050;55.558;-4.644;2023-02-13T06:18:20;103195.19;;;7.97;63.43
64853;BME280;56050;55.558;-4.644;2023-02-13T06:20:45;103187.31;;;8.01;63.33
64853;BME280;56050;55.558;-4.644;2023-02-13T06:23:11;103186.19;;;8.02;63.35
64853;BME280;56050;55.558;-4.644;2023-02-13T06:25:36;103182.13;;;8.04;63.38
64853;BME280;56050;55.558;-4.644;2023-02-13T06:28:03;103186.56;;;8.09;63.31
64853;BME280;56050;55.558;-4.644;2023-02-13T06:30:29;103183.25;;;8.12;63.25
64853;BME280;56050;55.558;-4.644;2023-02-13T06:32:54;103191.47;;;8.15;63.19
64853;BME280;56050;55.558;-4.644;2023-02-13T06:35:20;103190.06;;;8.18;63.30
64853;BME280;56050;55.558;-4.644;2023-02-13T06:37:45;103193.41;;;8.23;63.12
64853;BME280;56050;55.558;-4.644;2023-02-13T06:40:12;103198.50;;;8.25;63.19
64853;BME280;56050;55.558;-4.644;2023-02-13T06:42:38;103192.00;;;8.26;63.07
64853;BME280;56050;55.558;-4.644;2023-02-13T06:45:04;103193.63;;;8.27;63.16
64853;BME280;56050;55.558;-4.644;2023-02-13T06:47:30;103185.25;;;8.28;63.15
64853;BME280;56050;55.558;-4.644;2023-02-13T06:49:55;103183.06;;;8.31;63.14
64853;BME280;56050;55.558;-4.644;2023-02-13T06:52:20;103186.53;;;8.31;63.01
64853;BME280;56050;55.558;-4.644;2023-02-13T06:54:46;103188.28;;;8.36;63.12
64853;BME280;56050;55.558;-4.644;2023-02-13T06:57:11;103189.56;;;8.38;63.08
64853;BME280;56050;55.558;-4.644;2023-02-13T06:59:37;103191.16;;;8.39;63.08
64853;BME280;56050;55.558;-4.644;2023-02-13T07:02:02;103189.25;;;8.40;63.12
64853;BME280;56050;55.558;-4.644;2023-02-13T07:04:27;103181.34;;;8.43;63.08
64853;BME280;56050;55.558;-4.644;2023-02-13T07:06:54;103188.16;;;8.41;63.09
64853;BME280;56050;55.558;-4.644;2023-02-13T07:09:20;103191.44;;;8.38;63.26
64853;BME280;56050;55.558;-4.644;2023-02-13T07:11:45;103192.72;;;8.40;63.13
64853;BME280;56050;55.558;-4.644;2023-02-13T07:14:10;103183.25;;;8.43;63.24
64853;BME280;56050;55.558;-4.644;2023-02-13T07:16:36;103179.16;;;8.45;63.16
64853;BME280;56050;55.558;-4.644;2023-02-13T07:19:01;103179.16;;;8.45;63.25
64853;BME280;56050;55.558;-4.644;2023-02-13T07:21:27;103176.47;;;8.45;63.02
64853;BME280;56050;55.558;-4.644;2023-02-13T07:23:52;103177.09;;;8.42;63.20
64853;BME280;56050;55.558;-4.644;2023-02-13T07:26:17;103174.72;;;8.41;63.38
64853;BME280;56050;55.558;-4.644;2023-02-13T07:28:43;103182.78;;;8.41;63.39
64853;BME280;56050;55.558;-4.644;2023-02-13T07:31:09;103184.19;;;8.38;63.38
64853;BME280;56050;55.558;-4.644;2023-02-13T07:33:35;103188.59;;;8.34;63.47
64853;BME280;56050;55.558;-4.644;2023-02-13T07:36:00;103180.84;;;8.33;63.72
64853;BME280;56050;55.558;-4.644;2023-02-13T07:38:28;103176.56;;;8.32;63.65
64853;BME280;56050;55.558;-4.644;2023-02-13T07:41:00;103179.09;;;8.28;63.86
64853;BME280;56050;55.558;-4.644;2023-02-13T07:43:26;103168.63;;;8.26;64.04
64853;BME280;56050;55.558;-4.644;2023-02-13T07:45:52;103175.13;;;8.25;64.08
64853;BME280;56050;55.558;-4.644;2023-02-13T07:48:21;103172.44;;;8.25;64.03
64853;BME280;56050;55.558;-4.644;2023-02-13T07:50:47;103176.22;;;8.24;64.13
64853;BME280;56050;55.558;-4.644;2023-02-13T07:53:13;103170.03;;;8.24;64.22
64853;BME280;56050;55.558;-4.644;2023-02-13T07:55:38;103173.06;;;8.22;64.34
64853;BME280;56050;55.558;-4.644;2023-02-13T07:58:04;103174.13;;;8.21;64.66
64853;BME280;56050;55.558;-4.644;2023-02-13T08:00:29;103175.22;;;8.20;64.73
64853;BME280;56050;55.558;-4.644;2023-02-13T08:02:57;103170.66;;;8.21;64.82
64853;BME280;56050;55.558;-4.644;2023-02-13T08:05:22;103164.50;;;8.20;64.88
64853;BME280;56050;55.558;-4.644;2023-02-13T08:07:48;103158.66;;;8.18;64.78
64853;BME280;56050;55.558;-4.644;2023-02-13T08:10:14;103162.13;;;8.19;64.88
64853;BME280;56050;55.558;-4.644;2023-02-13T08:12:58;103161.34;;;8.18;65.43
64853;BME280;56050;55.558;-4.644;2023-02-13T08:15:24;103168.13;;;8.16;65.45
64853;BME280;56050;55.558;-4.644;2023-02-13T08:17:50;103175.09;;;8.17;65.34
64853;BME280;56050;55.558;-4.644;2023-02-13T08:20:15;103171.28;;;8.18;65.50
64853;BME280;56050;55.558;-4.644;2023-02-13T08:22:41;103170.97;;;8.19;65.38
64853;BME280;56050;55.558;-4.644;2023-02-13T08:25:06;103166.41;;;8.20;65.54
64853;BME280;56050;55.558;-4.644;2023-02-13T08:27:32;103166.09;;;8.21;65.60
64853;BME280;56050;55.558;-4.644;2023-02-13T08:29:58;103164.19;;;8.22;65.59
64853;BME280;56050;55.558;-4.644;2023-02-13T08:32:24;103159.63;;;8.22;65.52
64853;BME280;56050;55.558;-4.644;2023-02-13T08:34:50;103161.19;;;8.23;65.48
64853;BME280;56050;55.558;-4.644;2023-02-13T08:37:16;103156.03;;;8.27;65.65
64853;BME280;56050;55.558;-4.644;2023-02-13T08:39:42;103158.38;;;8.28;65.57
64853;BME280;56050;55.558;-4.644;2023-02-13T08:42:07;103155.09;;;8.32;65.67
64853;BME280;56050;55.558;-4.644;2023-02-13T08:44:33;103152.91;;;8.34;65.53
64853;BME280;56050;55.558;-4.644;2023-02-13T08:46:58;103150.38;;;8.37;65.83
64853;BME280;56050;55.558;-4.644;2023-02-13T08:49:30;103152.44;;;8.40;65.61
64853;BME280;56050;55.558;-4.644;2023-02-13T08:51:56;103149.44;;;8.42;65.68
64853;BME280;56050;55.558;-4.644;2023-02-13T08:54:21;103151.19;;;8.46;65.78
64853;BME280;56050;55.558;-4.644;2023-02-13T08:56:47;103156.75;;;8.50;65.54
64853;BME280;56050;55.558;-4.644;2023-02-13T08:59:12;103155.00;;;8.54;65.54
64853;BME280;56050;55.558;-4.644;2023-02-13T09:01:38;103153.56;;;8.56;65.73
64853;BME280;56050;55.558;-4.644;2023-02-13T09:04:03;103149.00;;;8.57;65.70
64853;BME280;56050;55.558;-4.644;2023-02-13T09:06:29;103153.28;;;8.58;65.72
64853;BME280;56050;55.558;-4.644;2023-02-13T09:08:54;103151.41;;;8.58;66.02
64853;BME280;56050;55.558;-4.644;2023-02-13T09:11:20;103143.00;;;8.60;65.69
64853;BME280;56050;55.558;-4.644;2023-02-13T09:13:48;103143.19;;;8.63;65.55
64853;BME280;56050;55.558;-4.644;2023-02-13T09:16:14;103147.44;;;8.64;65.66
64853;BME280;56050;55.558;-4.644;2023-02-13T09:18:39;103150.28;;;8.68;65.59
64853;BME280;56050;55.558;-4.644;2023-02-13T09:21:07;103150.75;;;8.70;65.67
64853;BME280;56050;55.558;-4.644;2023-02-13T09:23:35;103152.81;;;8.73;65.70
64853;BME280;56050;55.558;-4.644;2023-02-13T09:26:03;103147.94;;;8.75;65.70
64853;BME280;56050;55.558;-4.644;2023-02-13T09:28:30;103149.69;;;8.79;65.82
64853;BME280;56050;55.558;-4.644;2023-02-13T09:30:56;103143.97;;;8.81;65.75
64853;BME280;56050;55.558;-4.644;2023-02-13T09:33:22;103142.41;;;8.80;65.71
64853;BME280;56050;55.558;-4.644;2023-02-13T09:35:47;103141.78;;;8.83;65.87
64853;BME280;56050;55.558;-4.644;2023-02-13T09:38:13;103147.31;;;8.86;65.99
64853;BME280;56050;55.558;-4.644;2023-02-13T09:40:54;103141.63;;;8.88;65.90
64853;BME280;56050;55.558;-4.644;2023-02-13T09:43:32;103143.69;;;8.91;65.90
64853;BME280;56050;55.558;-4.644;2023-02-13T09:46:06;103134.50;;;8.92;65.61
64853;BME280;56050;55.558;-4.644;2023-02-13T09:48:36;103142.28;;;8.94;65.87
64853;BME280;56050;55.558;-4.644;2023-02-13T09:51:03;103149.53;;;8.93;65.78
64853;BME280;56050;55.558;-4.644;2023-02-13T09:53:30;103150.00;;;8.95;65.92
64853;BME280;56050;55.558;-4.644;2023-02-13T09:56:20;103150.19;;;8.99;65.89
64853;BME280;56050;55.558;-4.644;2023-02-13T09:58:48;103159.34;;;9.06;65.74
64853;BME280;56050;55.558;-4.644;2023-02-13T10:01:40;103162.53;;;9.08;65.74
64853;BME280;56050;55.558;-4.644;2023-02-13T10:04:22;103156.53;;;9.11;65.68
64853;BME280;56050;55.558;-4.644;2023-02-13T10:06:59;103156.19;;;9.13;65.54
64853;BME280;56050;55.558;-4.644;2023-02-13T10:12:26;103150.81;;;9.21;65.39
64853;BME280;56050;55.558;-4.644;2023-02-13T10:17:33;103157.47;;;9.24;65.20
64853;BME280;56050;55.558;-4.644;2023-02-13T10:20:07;103153.66;;;9.25;65.34
64853;BME280;56050;55.558;-4.644;2023-02-13T10:22:48;103155.22;;;9.26;65.17
64853;BME280;56050;55.558;-4.644;2023-02-13T10:25:20;103158.09;;;9.29;65.15
64853;BME280;56050;55.558;-4.644;2023-02-13T10:28:03;103148.59;;;9.32;65.16
64853;BME280;56050;55.558;-4.644;2023-02-13T10:30:35;103149.56;;;9.36;65.14
64853;BME280;56050;55.558;-4.644;2023-02-13T10:33:15;103153.78;;;9.45;65.19
64853;BME280;56050;55.558;-4.644;2023-02-13T10:38:22;103163.75;;;9.62;64.87
64853;BME280;56050;55.558;-4.644;2023-02-13T10:43:57;103165.16;;;9.77;64.36
64853;BME280;56050;55.558;-4.644;2023-02-13T10:52:32;103170.03;;;9.83;64.18
64853;BME280;56050;55.558;-4.644;2023-02-13T10:55:12;103163.69;;;9.88;63.97
64853;BME280;56050;55.558;-4.644;2023-02-13T11:02:45;103165.09;;;9.94;64.01
64853;BME280;56050;55.558;-4.644;2023-02-13T11:05:24;103163.34;;;9.98;63.86
64853;BME280;56050;55.558;-4.644;2023-02-13T11:07:50;103165.84;;;10.03;63.61
64853;BME280;56050;55.558;-4.644;2023-02-13T11:10:18;103172.47;;;10.05;63.84
64853;BME280;56050;55.558;-4.644;2023-02-13T11:12:45;103171.53;;;10.10;63.59
64853;BME280;56050;55.558;-4.644;2023-02-13T11:15:29;103165.81;;;10.12;63.59
64853;BME280;56050;55.558;-4.644;2023-02-13T11:18:01;103166.00;;;10.15;63.38
64853;BME280;56050;55.558;-4.644;2023-02-13T11:20:34;103156.31;;;10.14;63.29
64853;BME280;56050;55.558;-4.644;2023-02-13T11:23:27;103169.78;;;10.14;63.24
64853;BME280;56050;55.558;-4.644;2023-02-13T11:26:00;103175.19;;;10.14;63.04
64853;BME280;56050;55.558;-4.644;2023-02-13T11:28:30;103160.44;;;10.12;63.20
64853;BME280;56050;55.558;-4.644;2023-02-13T11:31:29;103168.50;;;10.12;63.26
64853;BME280;56050;55.558;-4.644;2023-02-13T11:33:57;103169.00;;;10.14;62.99
64853;BME280;56050;55.558;-4.644;2023-02-13T11:36:24;103157.91;;;10.15;63.17
64853;BME280;56050;55.558;-4.644;2023-02-13T11:39:03;103162.97;;;10.17;63.17
64853;BME280;56050;55.558;-4.644;2023-02-13T11:41:30;103162.81;;;10.22;63.09
64853;BME280;56050;55.558;-4.644;2023-02-13T11:44:01;103157.09;;;10.23;63.18
64853;BME280;56050;55.558;-4.644;2023-02-13T11:46:54;103155.81;;;10.29;63.19
64853;BME280;56050;55.558;-4.644;2023-02-13T11:49:27;103155.75;;;10.38;62.97
64853;BME280;56050;55.558;-4.644;2023-02-13T11:51:58;103147.16;;;10.44;62.83
64853;BME280;56050;55.558;-4.644;2023-02-13T11:54:43;103149.00;;;10.52;62.99
64853;BME280;56050;55.558;-4.644;2023-02-13T11:59:42;103139.84;;;10.74;62.83
64853;BME280;56050;55.558;-4.644;2023-02-13T12:02:30;103131.81;;;10.86;62.79
64853;BME280;56050;55.558;-4.644;2023-02-13T12:05:18;103131.09;;;10.98;62.70
64853;BME280;56050;55.558;-4.644;2023-02-13T12:07:45;103122.94;;;11.06;62.59
64853;BME280;56050;55.558;-4.644;2023-02-13T12:12:54;103115.81;;;11.23;62.54
64853;BME280;56050;55.558;-4.644;2023-02-13T12:15:32;103118.88;;;11.33;62.17
64853;BME280;56050;55.558;-4.644;2023-02-13T12:20:37;103113.31;;;11.50;62.13
64853;BME280;56050;55.558;-4.644;2023-02-13T12:23:16;103106.22;;;11.58;61.93
64853;BME280;56050;55.558;-4.644;2023-02-13T12:31:12;103109.63;;;11.67;61.21
64853;BME280;56050;55.558;-4.644;2023-02-13T12:33:55;103108.25;;;11.61;61.38
64853;BME280;56050;55.558;-4.644;2023-02-13T12:36:35;103101.19;;;11.56;61.07
64853;BME280;56050;55.558;-4.644;2023-02-13T12:42:28;103100.91;;;11.49;61.16
64853;BME280;56050;55.558;-4.644;2023-02-13T12:51:06;103109.66;;;11.34;61.22
64853;BME280;56050;55.558;-4.644;2023-02-13T12:56:34;103094.38;;;11.38;61.11
64853;BME280;56050;55.558;-4.644;2023-02-13T13:13:51;103084.72;;;11.49;60.46
64853;BME280;56050;55.558;-4.644;2023-02-13T13:16:33;103083.63;;;11.50;60.54
64853;BME280;56050;55.558;-4.644;2023-02-13T13:19:17;103083.63;;;11.50;60.62
64853;BME280;56050;55.558;-4.644;2023-02-13T13:27:21;103075.41;;;11.59;60.38
64853;BME280;56050;55.558;-4.644;2023-02-13T13:29:58;103072.72;;;11.59;59.65
64853;BME280;56050;55.558;-4.644;2023-02-13T13:32:26;103074.19;;;11.56;59.92
64853;BME280;56050;55.558;-4.644;2023-02-13T13:34:54;103072.94;;;11.54;59.88
64853;BME280;56050;55.558;-4.644;2023-02-13T13:37:32;103075.75;;;11.57;60.05
64853;BME280;56050;55.558;-4.644;2023-02-13T13:51:49;103050.94;;;11.76;59.06
64853;BME280;56050;55.558;-4.644;2023-02-13T14:07:44;103030.28;;;11.47;59.44
64853;BME280;56050;55.558;-4.644;2023-02-13T14:13:09;103019.47;;;11.35;59.26
64853;BME280;56050;55.558;-4.644;2023-02-13T14:26:33;103011.78;;;11.13;59.50
64853;BME280;56050;55.558;-4.644;2023-02-13T14:29:25;103011.34;;;11.11;59.36
64853;BME280;56050;55.558;-4.644;2023-02-13T14:31:59;103006.94;;;11.06;59.22
64853;BME280;56050;55.558;-4.644;2023-02-13T14:34:31;103003.22;;;10.99;59.46
64853;BME280;56050;55.558;-4.644;2023-02-13T14:39:41;103000.94;;;10.89;59.17
64853;BME280;56050;55.558;-4.644;2023-02-13T14:42:26;102982.25;;;10.84;59.66
64853;BME280;56050;55.558;-4.644;2023-02-13T14:44:57;102987.53;;;10.80;59.77
64853;BME280;56050;55.558;-4.644;2023-02-13T14:47:39;102988.31;;;10.81;59.67
64853;BME280;56050;55.558;-4.644;2023-02-13T14:50:14;102985.63;;;10.81;59.75
64853;BME280;56050;55.558;-4.644;2023-02-13T14:52:45;102973.72;;;10.82;59.73
64853;BME280;56050;55.558;-4.644;2023-02-13T14:57:58;102974.84;;;10.81;59.64
64853;BME280;56050;55.558;-4.644;2023-02-13T15:03:03;102967.41;;;10.78;59.85
64853;BME280;56050;55.558;-4.644;2023-02-13T15:05:34;102965.06;;;10.76;59.76
64853;BME280;56050;55.558;-4.644;2023-02-13T15:08:10;102966.50;;;10.74;59.75
64853;BME280;56050;55.558;-4.644;2023-02-13T15:10:43;102969.41;;;10.69;59.69
64853;BME280;56050;55.558;-4.644;2023-02-13T15:13:20;102968.50;;;10.65;59.60
64853;BME280;56050;55.558;-4.644;2023-02-13T15:15:55;102968.69;;;10.59;59.86
64853;BME280;56050;55.558;-4.644;2023-02-13T15:18:48;102970.94;;;10.57;60.00
64853;BME280;56050;55.558;-4.644;2023-02-13T15:21:21;102968.25;;;10.57;59.88
64853;BME280;56050;55.558;-4.644;2023-02-13T15:23:53;102969.38;;;10.56;60.14
64853;BME280;56050;55.558;-4.644;2023-02-13T15:26:23;102967.13;;;10.58;59.87
64853;BME280;56050;55.558;-4.644;2023-02-13T15:29:01;102976.00;;;10.59;60.04
64853;BME280;56050;55.558;-4.644;2023-02-13T15:31:32;102970.41;;;10.64;59.93
64853;BME280;56050;55.558;-4.644;2023-02-13T15:33:58;102962.44;;;10.68;59.81
64853;BME280;56050;55.558;-4.644;2023-02-13T15:36:34;102959.09;;;10.71;59.95
64853;BME280;56050;55.558;-4.644;2023-02-13T15:39:01;102962.22;;;10.73;59.82
64853;BME280;56050;55.558;-4.644;2023-02-13T15:41:46;102961.13;;;10.74;59.87
64853;BME280;56050;55.558;-4.644;2023-02-13T15:44:34;102964.72;;;10.78;59.77